Time;durP1;ratioP1;P1;durP2;ratioP2;P2;SDS_P1;SDS_P2;PMS_P1;PMS_P2;Temp;Humidity;BMP_temperature;BMP_pressure;BME280_temperature;BME280_humidity;BME280_pressure;Samples;Min_cycle;Max_cycle;Signal;HPM_P1;HPM_P2
2022/03/20 00:00:56;;;;;;;;;3.00;3.00;;;;;11.77;37.39;102455.41;5034948;28;45386;-73
2022/03/20 00:03:23;;;;;;;;;4.00;2.33;;;;;11.68;36.79;102440.13;5034957;28;46278;-74
2022/03/20 00:05:49;;;;;;;;;6.33;5.00;;;;;11.73;36.96;102453.53;5034901;28;45438;-76
2022/03/20 00:08:15;;;;;;;;;6.67;4.00;;;;;11.65;37.01;102444.41;5034841;28;45530;-74
2022/03/20 00:10:45;;;;;;;;;2.00;2.00;;;;;11.72;36.81;102452.63;5034456;28;52900;-75
2022/03/20 00:13:11;;;;;;;;;6.67;3.00;;;;;11.69;36.63;102443.69;5031750;28;45540;-76
2022/03/20 00:15:40;;;;;;;;;4.00;4.00;;;;;11.59;36.42;102433.66;5012319;28;45632;-75
2022/03/20 00:18:09;;;;;;;;;2.75;2.00;;;;;11.52;36.75;102428.16;5018793;28;45584;-76
2022/03/20 00:20:39;;;;;;;;;3.67;3.67;;;;;11.60;36.85;102452.22;5018889;28;45511;-76
2022/03/20 00:23:07;;;;;;;;;3.67;3.00;;;;;11.59;37.11;102445.13;5014735;28;47793;-76
2022/03/20 00:25:37;;;;;;;;;5.00;2.00;;;;;11.58;37.12;102447.72;5015356;28;45516;-75
2022/03/20 00:28:03;;;;;;;;;3.00;3.00;;;;;11.48;36.77;102439.47;5015353;28;45525;-76
2022/03/20 00:30:28;;;;;;;;;3.00;3.00;;;;;11.42;36.85;102438.38;5033544;28;45646;-75
2022/03/20 00:32:54;;;;;;;;;5.00;3.33;;;;;11.38;36.92;102429.44;5001228;28;59263;-74
2022/03/20 00:35:19;;;;;;;;;4.00;3.33;;;;;11.42;37.24;102441.94;5016099;28;45438;-75
2022/03/20 00:37:45;;;;;;;;;3.67;3.67;;;;;11.33;37.08;102428.38;5000973;28;45420;-75
2022/03/20 00:40:10;;;;;;;;;5.67;3.00;;;;;11.39;37.26;102452.41;5033493;28;50847;-75
2022/03/20 00:42:35;;;;;;;;;3.00;3.00;;;;;11.25;37.40;102429.91;5031250;28;60130;-76
2022/03/20 00:45:01;;;;;;;;;4.67;3.00;;;;;11.32;37.25;102442.47;5029693;28;45662;-74
2022/03/20 00:47:26;;;;;;;;;4.00;3.00;;;;;11.29;37.44;102437.06;5036629;28;45526;-75
2022/03/20 00:49:52;;;;;;;;;3.00;3.00;;;;;11.21;36.96;102428.00;5033644;28;51534;-75
2022/03/20 00:52:17;;;;;;;;;3.33;2.33;;;;;11.20;37.49;102432.38;5052198;28;49317;-76
2022/03/20 00:54:42;;;;;;;;;2.25;2.25;;;;;11.07;37.50;102416.03;5013952;28;45540;-75
2022/03/20 00:57:08;;;;;;;;;4.00;3.00;;;;;11.14;37.55;102428.63;5033895;28;46029;-74
2022/03/20 00:59:33;;;;;;;;;2.75;2.50;;;;;11.09;37.11;102427.56;5052571;28;45688;-75
2022/03/20 01:01:59;;;;;;;;;2.67;1.00;;;;;11.05;37.54;102431.84;5015305;28;59882;-75
2022/03/20 01:04:25;;;;;;;;;4.67;2.00;;;;;11.02;37.36;102427.38;5015603;28;48123;-75
2022/03/20 01:06:55;;;;;;;;;1.00;1.00;;;;;10.86;37.37;102403.88;4996078;28;45503;-75
2022/03/20 01:09:22;;;;;;;;;3.00;2.00;;;;;10.99;37.62;102436.94;5019278;28;45861;-75
2022/03/20 01:11:47;;;;;;;;;2.33;2.00;;;;;10.93;37.51;102424.41;5052101;28;45700;-75
2022/03/20 01:14:13;;;;;;;;;2.00;2.00;;;;;10.92;37.68;102427.91;5050407;28;45677;-75
2022/03/20 01:16:38;;;;;;;;;4.00;2.00;;;;;10.80;37.75;102408.03;5028874;28;45553;-75
2022/03/20 01:19:04;;;;;;;;;3.00;3.00;;;;;10.86;37.91;102422.38;5015812;28;52633;-75
2022/03/20 01:21:30;;;;;;;;;6.25;2.50;;;;;10.81;37.59;102409.84;5051439;28;45928;-75
2022/03/20 01:23:56;;;;;;;;;2.00;1.00;;;;;10.83;37.73;102424.03;5051984;28;45372;-76
2022/03/20 01:26:21;;;;;;;;;1.00;1.00;;;;;10.82;37.75;102414.31;5031529;28;45565;-74
2022/03/20 01:28:47;;;;;;;;;1.67;1.67;;;;;10.78;37.87;102412.38;5033857;28;50650;-77
2022/03/20 01:31:13;;;;;;;;;1.00;1.00;;;;;10.77;37.83;102416.78;5033816;28;46396;-77
2022/03/20 01:33:38;;;;;;;;;3.33;2.67;;;;;10.75;37.98;102421.97;5033106;28;53859;-76
2022/03/20 01:36:04;;;;;;;;;2.67;1.67;;;;;10.70;37.89;102407.72;5034247;28;45485;-77
2022/03/20 01:38:29;;;;;;;;;2.33;2.00;;;;;10.72;38.05;102406.03;5015730;28;56182;-74
2022/03/20 01:40:54;;;;;;;;;3.67;3.00;;;;;10.68;38.15;102409.41;5052282;28;47139;-77
2022/03/20 01:43:20;;;;;;;;;4.00;2.00;;;;;10.58;37.93;102395.81;5033461;28;45537;-76
2022/03/20 01:45:45;;;;;;;;;3.33;2.00;;;;;10.51;38.16;102383.25;5029039;28;45496;-77
2022/03/20 01:48:10;;;;;;;;;2.00;1.33;;;;;10.62;38.04;102410.94;5018020;28;45740;-75
2022/03/20 01:50:36;;;;;;;;;4.50;2.00;;;;;10.51;37.97;102393.81;5033571;28;46018;-75
2022/03/20 01:53:01;;;;;;;;;3.50;2.00;;;;;10.45;38.31;102382.19;5033062;28;45562;-75
2022/03/20 01:55:28;;;;;;;;;7.50;2.00;;;;;10.41;38.28;102376.72;5032524;28;49183;-75
2022/03/20 01:57:54;;;;;;;;;2.00;2.00;;;;;10.42;38.59;102397.91;5033606;28;45602;-76
2022/03/20 02:00:20;;;;;;;;;2.00;2.00;;;;;10.47;38.25;102401.59;5031023;28;46566;-74
2022/03/20 02:02:46;;;;;;;;;6.00;1.00;;;;;10.44;38.35;102387.41;5030126;28;45621;-74
2022/03/20 02:05:12;;;;;;;;;3.00;3.00;;;;;10.33;38.70;102380.81;5013560;28;46191;-75
2022/03/20 02:07:38;;;;;;;;;2.00;1.75;;;;;10.37;38.91;102382.72;5016039;28;45573;-73
2022/03/20 02:10:04;;;;;;;;;5.50;2.25;;;;;10.36;38.73;102381.84;5033400;28;46364;-73
2022/03/20 02:12:30;;;;;;;;;2.00;2.00;;;;;10.34;38.74;102386.19;5032897;28;46339;-73
2022/03/20 02:14:56;;;;;;;;;3.00;2.25;;;;;10.32;38.72;102382.56;5013657;28;45396;-74
2022/03/20 02:17:21;;;;;;;;;4.00;1.75;;;;;10.21;38.89;102366.28;5028579;28;45468;-75
2022/03/20 02:19:47;;;;;;;;;5.00;2.00;;;;;10.28;39.12;102382.38;5049352;28;56246;-75
2022/03/20 02:22:13;;;;;;;;;2.00;2.00;;;;;10.13;39.18;102353.66;5053732;28;45490;-75
2022/03/20 02:24:43;;;;;;;;;4.00;2.00;;;;;10.18;39.19;102367.94;5019981;28;46356;-74
2022/03/20 02:27:17;;;;;;;;;6.00;2.00;;;;;10.20;39.25;102369.78;5016766;28;45553;-75
2022/03/20 02:29:46;;;;;;;;;2.75;2.00;;;;;10.08;39.32;102345.56;5051468;28;46697;-75
2022/03/20 02:32:12;;;;;;;;;3.25;2.00;;;;;10.13;39.41;102359.84;5033146;28;45586;-74
2022/03/20 02:34:38;;;;;;;;;3.00;3.00;;;;;10.13;39.28;102356.31;5036648;28;45513;-74
2022/03/20 02:37:04;;;;;;;;;4.00;2.75;;;;;10.05;39.75;102348.09;5017343;28;45590;-74
2022/03/20 02:39:29;;;;;;;;;3.00;2.00;;;;;10.06;39.39;102357.78;5019573;28;47389;-75
2022/03/20 02:41:56;;;;;;;;;2.00;2.00;;;;;10.04;39.64;102359.50;5016312;28;45583;-75
2022/03/20 02:45:03;;;;;;;;;2.50;2.50;;;;;10.04;40.00;102354.22;5036484;28;45506;-73
2022/03/20 02:47:32;;;;;;;;;2.25;2.00;;;;;10.00;39.99;102349.66;5035001;28;45558;-75
2022/03/20 02:50:06;;;;;;;;;2.25;2.00;;;;;9.94;40.06;102339.75;5014119;28;45777;-75
2022/03/20 02:52:41;;;;;;;;;5.50;2.00;;;;;9.95;40.25;102344.19;4994872;28;46507;-75
2022/03/20 02:55:08;;;;;;;;;7.00;2.00;;;;;9.92;40.34;102341.47;5001496;28;45507;-74
2022/03/20 02:57:34;;;;;;;;;3.00;2.00;;;;;9.80;40.06;102327.81;5036081;28;45411;-75
2022/03/20 03:00:02;;;;;;;;;3.00;2.75;;;;;9.90;40.73;102331.69;5052073;28;46481;-75
2022/03/20 03:02:30;;;;;;;;;2.25;2.25;;;;;9.78;40.52;102308.38;5018203;28;45480;-75
2022/03/20 03:04:57;;;;;;;;;6.00;2.50;;;;;9.85;40.62;102327.97;5016438;28;45404;-75
2022/03/20 03:07:22;;;;;;;;;6.00;2.25;;;;;9.77;40.68;102310.97;5015978;28;45526;-74
2022/03/20 03:12:32;;;;;;;;;2.50;1.75;;;;;9.86;41.03;102330.69;5036732;28;45552;-75
2022/03/20 03:17:41;;;;;;;;;6.00;3.25;;;;;9.73;41.19;102315.22;5030574;28;45532;-76
2022/03/20 03:20:07;;;;;;;;;2.25;2.00;;;;;9.75;41.13;102318.81;5016107;28;46379;-74
2022/03/20 03:22:33;;;;;;;;;3.00;3.00;;;;;9.77;41.17;102321.50;5032472;28;45517;-75
2022/03/20 03:24:58;;;;;;;;;3.50;2.50;;;;;9.75;41.05;102318.81;5011839;28;45645;-75
2022/03/20 03:27:24;;;;;;;;;6.25;3.75;;;;;9.71;41.24;102320.44;5052248;28;45538;-75
2022/03/20 03:29:49;;;;;;;;;5.50;3.00;;;;;9.70;41.45;102309.84;5012912;28;46277;-74
2022/03/20 03:32:14;;;;;;;;;4.00;2.75;;;;;9.69;41.31;102310.66;5052017;28;45892;-74
2022/03/20 03:37:24;;;;;;;;;4.00;2.00;;;;;9.64;41.26;102315.78;5030962;28;45408;-74
2022/03/20 03:39:49;;;;;;;;;7.25;3.00;;;;;9.64;41.72;102314.84;5033547;28;46453;-74
2022/03/20 03:42:15;;;;;;;;;3.00;3.00;;;;;9.61;41.45;102309.47;5018723;28;46104;-75
2022/03/20 03:44:41;;;;;;;;;2.00;2.00;;;;;9.59;41.84;102316.44;5051403;28;45524;-74
2022/03/20 03:47:06;;;;;;;;;3.00;3.00;;;;;9.59;42.03;102314.69;5027360;28;45403;-75
2022/03/20 03:49:33;;;;;;;;;7.50;3.50;;;;;9.56;41.74;102306.66;5035281;28;46575;-74
2022/03/20 03:52:00;;;;;;;;;4.50;2.25;;;;;9.52;41.67;102304.72;5015527;28;46637;-73
2022/03/20 03:54:25;;;;;;;;;6.50;5.00;;;;;9.44;41.82;102285.09;5001491;28;45651;-74
2022/03/20 03:56:51;;;;;;;;;3.00;3.00;;;;;9.52;41.38;102311.75;5033919;28;45598;-73
2022/03/20 03:59:17;;;;;;;;;4.50;4.00;;;;;9.46;41.97;102299.22;5019102;28;59881;-75
2022/03/20 04:01:43;;;;;;;;;3.00;3.00;;;;;9.46;41.90;102304.50;5033037;28;46067;-73
2022/03/20 04:04:08;;;;;;;;;3.25;3.25;;;;;9.36;42.08;102281.25;5034865;28;45492;-73
2022/03/20 04:06:34;;;;;;;;;7.00;6.00;;;;;9.36;41.88;102286.53;5016174;28;55827;-76
2022/03/20 04:08:59;;;;;;;;;1.00;1.00;;;;;9.38;42.19;102283.13;5034068;28;45542;-75
2022/03/20 04:11:25;;;;;;;;;4.00;4.00;;;;;9.39;41.99;102294.56;5018304;28;46128;-74
2022/03/20 04:13:50;;;;;;;;;3.50;3.00;;;;;9.29;42.26;102285.38;5052822;28;45433;-74
2022/03/20 04:16:16;;;;;;;;;4.75;3.00;;;;;9.37;42.30;102299.75;5031519;28;45511;-74
2022/03/20 04:18:41;;;;;;;;;4.00;4.00;;;;;9.24;42.50;102281.66;5017007;28;60477;-75
2022/03/20 04:21:06;;;;;;;;;4.25;4.25;;;;;9.22;42.58;102279.84;5017259;28;59073;-75
2022/03/20 04:26:26;;;;;;;;;8.50;6.00;;;;;9.25;42.74;102291.38;5029601;28;45492;-74
2022/03/20 04:28:52;;;;;;;;;5.50;2.25;;;;;9.20;42.38;102292.91;5033681;28;47430;-75
2022/03/20 04:31:19;;;;;;;;;3.00;3.00;;;;;9.27;42.63;102309.88;5033922;28;45467;-74
2022/03/20 04:33:45;;;;;;;;;6.00;3.75;;;;;9.22;42.82;102311.47;5052947;28;45487;-76
2022/03/20 04:36:10;;;;;;;;;5.75;5.50;;;;;9.17;42.87;102296.34;5018259;28;45651;-75
2022/03/20 04:38:36;;;;;;;;;4.75;4.75;;;;;9.18;43.37;102302.50;5028082;28;51174;-75
2022/03/20 04:41:02;;;;;;;;;8.25;6.00;;;;;9.14;43.16;102314.66;5032573;28;47338;-77
2022/03/20 04:43:27;;;;;;;;;6.00;6.00;;;;;9.10;43.26;102304.81;5007912;28;46066;-75
2022/03/20 04:45:53;;;;;;;;;9.00;4.00;;;;;9.09;43.30;102310.94;5010718;28;45567;-75
2022/03/20 04:59:14;;;;;;;;;8.25;6.75;;;;;9.01;43.26;102300.94;5031086;28;45468;-75
2022/03/20 05:01:40;;;;;;;;;7.00;7.00;;;;;8.83;43.57;102270.34;5051726;28;59383;-73
2022/03/20 05:04:05;;;;;;;;;9.75;5.00;;;;;8.93;43.69;102295.34;5033526;28;51279;-75
2022/03/20 05:06:31;;;;;;;;;9.25;7.25;;;;;8.82;44.12;102281.72;5030859;28;45433;-73
2022/03/20 05:13:19;;;;;;;;;9.00;6.75;;;;;8.91;44.01;102295.28;5032625;28;55437;-74
2022/03/20 05:14:25;;;;;;;;;7.00;7.00;;;;;8.89;43.78;102296.03;5016594;28;45609;-74
2022/03/20 05:16:52;;;;;;;;;5.00;5.00;;;;;8.86;44.07;102288.03;5031243;28;45725;-74
2022/03/20 05:19:19;;;;;;;;;5.50;5.50;;;;;8.86;44.18;102288.03;5015981;28;45771;-74
2022/03/20 05:21:45;;;;;;;;;8.00;6.00;;;;;8.83;44.23;102290.53;5031571;28;45453;-75
2022/03/20 05:24:13;;;;;;;;;10.00;7.00;;;;;8.80;44.34;102296.59;5051982;28;45550;-74
2022/03/20 05:26:41;;;;;;;;;8.75;5.50;;;;;8.71;44.04;102277.75;4999908;28;45477;-73
2022/03/20 05:29:06;;;;;;;;;11.75;6.75;;;;;8.77;44.02;102290.28;5033107;28;48463;-75
2022/03/20 05:31:32;;;;;;;;;8.00;7.00;;;;;8.75;44.53;102291.97;5031799;28;47570;-75
2022/03/20 05:33:58;;;;;;;;;7.50;6.00;;;;;8.73;44.36;102296.25;5016571;28;45607;-74
2022/03/20 05:36:28;;;;;;;;;10.50;6.00;;;;;8.59;44.66;102272.88;5031779;28;45511;-74
2022/03/20 05:38:54;;;;;;;;;5.00;5.00;;;;;8.62;44.91;102286.16;5162737;22;46070;-75
2022/03/20 05:44:04;;;;;;;;;7.00;6.00;;;;;8.57;44.83;102279.78;5016238;28;45460;-74
2022/03/20 05:46:29;;;;;;;;;11.00;7.00;;;;;8.50;45.13;102261.94;5030731;28;45780;-74
2022/03/20 05:48:55;;;;;;;;;9.50;6.75;;;;;8.55;44.99;102281.47;5033347;28;45876;-74
2022/03/20 05:51:20;;;;;;;;;10.25;7.75;;;;;8.55;45.25;102291.09;5017152;28;45452;-74
2022/03/20 05:53:46;;;;;;;;;10.75;7.00;;;;;8.55;45.10;102285.84;5033164;28;54709;-75
2022/03/20 05:58:57;;;;;;;;;6.25;6.25;;;;;8.50;44.86;102277.75;5054399;28;45787;-74
2022/03/20 06:01:23;;;;;;;;;14.25;7.00;;;;;8.50;45.64;102277.75;5021223;28;45537;-76
2022/03/20 06:03:49;;;;;;;;;6.75;5.00;;;;;8.50;45.09;102279.47;5018156;28;45509;-74
2022/03/20 06:06:15;;;;;;;;;7.00;6.75;;;;;8.51;45.60;102289.19;5020941;28;45577;-75
2022/03/20 06:08:40;;;;;;;;;9.25;6.25;;;;;8.47;45.49;102277.63;5020431;28;46622;-74
2022/03/20 06:11:06;;;;;;;;;9.25;6.00;;;;;8.49;45.76;102288.22;5003708;28;55869;-75
2022/03/20 06:13:33;;;;;;;;;9.00;6.00;;;;;8.45;45.65;102283.66;5033916;28;45449;-75
2022/03/20 06:15:58;;;;;;;;;9.25;7.00;;;;;8.35;45.49;102263.91;5019912;28;45576;-75
2022/03/20 06:18:26;;;;;;;;;9.00;5.75;;;;;8.36;45.60;102270.97;5036682;28;45533;-75
2022/03/20 06:20:51;;;;;;;;;14.75;7.00;;;;;8.44;45.61;102295.03;5037104;28;45449;-75
2022/03/20 06:23:17;;;;;;;;;11.25;7.50;;;;;8.44;45.86;102297.66;5019103;28;45396;-74
2022/03/20 06:25:43;;;;;;;;;9.75;8.00;;;;;8.42;45.99;102300.22;5017306;28;45584;-75
2022/03/20 06:28:08;;;;;;;;;8.25;7.00;;;;;8.42;45.96;102302.88;5033677;28;46561;-74
2022/03/20 06:30:34;;;;;;;;;8.25;6.00;;;;;8.31;46.07;102289.19;5016887;28;45649;-75
2022/03/20 06:33:02;;;;;;;;;9.75;7.00;;;;;8.38;45.92;102295.66;5015771;28;45450;-74
2022/03/20 06:35:27;;;;;;;;;7.75;6.00;;;;;8.46;46.02;102314.41;5035811;28;45478;-76
2022/03/20 06:37:53;;;;;;;;;9.25;7.00;;;;;8.47;46.09;102314.50;5033800;28;46633;-76
2022/03/20 06:40:19;;;;;;;;;9.50;7.00;;;;;8.46;46.03;102307.41;5033695;28;45442;-76
2022/03/20 06:42:45;;;;;;;;;8.25;8.25;;;;;8.48;45.90;102310.13;5019072;28;45471;-74
2022/03/20 06:45:11;;;;;;;;;8.00;7.00;;;;;8.52;45.90;102306.75;5035967;28;52743;-76
2022/03/20 06:47:37;;;;;;;;;6.00;6.00;;;;;8.55;46.04;102318.34;5019356;28;46515;-76
2022/03/20 06:50:03;;;;;;;;;8.75;8.75;;;;;8.55;46.01;102334.13;5016456;28;45404;-75
2022/03/20 06:52:29;;;;;;;;;10.25;7.25;;;;;8.54;46.24;102321.81;5032769;28;45458;-75
2022/03/20 06:54:56;;;;;;;;;10.75;5.25;;;;;8.59;45.99;102329.91;5035655;28;45508;-74
2022/03/20 06:57:22;;;;;;;;;11.25;8.00;;;;;8.56;46.20;102316.59;5037790;28;45677;-74
2022/03/20 06:59:47;;;;;;;;;12.50;9.00;;;;;8.64;45.88;102323.09;5034685;28;45498;-75
2022/03/20 07:02:13;;;;;;;;;10.00;8.75;;;;;8.68;45.94;102329.38;5036410;28;45510;-76
2022/03/20 07:04:38;;;;;;;;;11.00;9.50;;;;;8.66;45.75;102327.59;5017379;28;45539;-75
2022/03/20 07:07:04;;;;;;;;;8.25;7.25;;;;;8.72;45.84;102332.22;5053124;28;46576;-74
2022/03/20 07:09:29;;;;;;;;;8.00;8.00;;;;;8.73;45.97;102325.22;5054211;28;45503;-74
2022/03/20 07:11:54;;;;;;;;;10.00;10.00;;;;;8.77;45.86;102335.03;5036010;28;46053;-75
2022/03/20 07:14:20;;;;;;;;;11.25;10.25;;;;;8.77;46.10;102333.31;5034528;28;45554;-74
2022/03/20 07:16:45;;;;;;;;;12.00;8.75;;;;;8.81;46.01;102324.72;5019548;28;48968;-73
2022/03/20 07:19:11;;;;;;;;;11.50;11.25;;;;;8.80;46.16;102338.72;5035314;28;49543;-75
2022/03/20 07:21:36;;;;;;;;;15.75;12.50;;;;;8.85;46.07;102331.03;5054198;28;45402;-75
2022/03/20 07:24:02;;;;;;;;;14.75;11.00;;;;;8.87;46.08;102335.50;5035788;28;45472;-75
2022/03/20 07:29:30;;;;;;;;;19.00;12.50;;;;;8.91;45.85;102340.06;5035769;28;45507;-74
2022/03/20 07:31:57;;;;;;;;;13.00;10.50;;;;;8.92;45.99;102328.69;5051788;28;45590;-75
2022/03/20 07:34:23;;;;;;;;;10.00;8.25;;;;;8.84;46.00;102316.94;5053315;28;45364;-75
2022/03/20 07:36:49;;;;;;;;;15.75;13.00;;;;;8.98;45.88;102349.13;5033883;28;46992;-76
2022/03/20 07:39:14;;;;;;;;;18.50;13.50;;;;;9.01;46.18;102341.34;5015618;28;45430;-74
2022/03/20 07:41:40;;;;;;;;;17.00;13.00;;;;;9.04;46.16;102345.84;5053663;28;46445;-75
2022/03/20 07:44:05;;;;;;;;;20.00;14.00;;;;;8.99;45.94;102332.47;5051229;28;45517;-75
2022/03/20 07:46:31;;;;;;;;;2.75;2.75;;;;;9.09;46.09;102346.94;5012171;28;46719;-76
2022/03/20 07:48:58;;;;;;;;;20.00;15.00;;;;;9.01;46.19;102320.28;5017902;28;45398;-78
2022/03/20 07:51:23;;;;;;;;;14.25;12.00;;;;;8.93;46.98;102343.66;5034105;28;45422;-79
2022/03/20 07:53:50;;;;;;;;;16.00;12.25;;;;;8.82;47.43;102349.31;5011040;28;50083;-78
2022/03/20 07:56:19;;;;;;;;;17.50;14.25;;;;;8.57;48.16;102327.19;5024558;28;48058;-79
2022/03/20 07:58:45;;;;;;;;;17.50;13.00;;;;;8.48;48.16;102326.81;5015729;28;46232;-80
2022/03/20 08:01:10;;;;;;;;;20.00;13.00;;;;;8.42;49.00;102336.19;5013517;28;45550;-75
2022/03/20 08:03:37;;;;;;;;;19.75;15.25;;;;;8.33;49.58;102350.69;5051534;28;45419;-75
2022/03/20 08:06:02;;;;;;;;;22.25;19.00;;;;;8.26;50.32;102340.72;5029742;28;46665;-72
2022/03/20 08:08:28;;;;;;;;;22.00;16.25;;;;;8.23;50.20;102343.22;5046155;28;58166;-73
2022/03/20 08:10:53;;;;;;;;;20.25;16.25;;;;;8.20;50.62;102337.78;5028318;28;46046;-76
2022/03/20 08:13:19;;;;;;;;;21.00;16.25;;;;;8.20;50.15;102343.06;5032280;28;45541;-76
2022/03/20 08:15:44;;;;;;;;;22.00;20.25;;;;;8.18;51.13;102338.56;5047849;28;46538;-75
2022/03/20 08:18:10;;;;;;;;;21.50;17.75;;;;;8.17;50.86;102337.69;5041899;28;57194;-74
2022/03/20 08:20:38;;;;;;;;;23.25;19.75;;;;;8.19;50.47;102336.00;5010082;28;45598;-76
2022/03/20 08:23:05;;;;;;;;;24.25;19.75;;;;;8.11;50.58;102306.72;5015319;28;45475;-77
2022/03/20 08:25:33;;;;;;;;;22.50;19.75;;;;;8.25;50.11;102344.16;5013543;28;46997;-75
2022/03/20 08:28:00;;;;;;;;;23.00;19.25;;;;;8.28;51.52;102336.41;5031124;28;45593;-77
2022/03/20 08:30:33;;;;;;;;;24.00;19.25;;;;;8.34;50.82;102346.31;5014283;28;45542;-76
2022/03/20 08:32:59;;;;;;;;;20.00;19.25;;;;;8.38;50.78;102336.03;5042316;28;46392;-77
2022/03/20 08:35:25;;;;;;;;;27.00;20.75;;;;;8.55;49.70;102335.88;5008815;28;47094;-77
2022/03/20 08:37:53;;;;;;;;;19.50;14.25;;;;;8.62;49.93;102337.91;5033406;28;45562;-75
2022/03/20 08:43:53;;;;;;;;;24.25;18.00;;;;;8.91;49.06;102339.16;5031930;28;45456;-77
2022/03/20 08:46:24;;;;;;;;;21.50;18.50;;;;;8.99;48.93;102342.13;5029755;28;45748;-75
2022/03/20 08:48:50;;;;;;;;;23.75;21.25;;;;;9.09;48.58;102328.47;5032195;28;45548;-77
2022/03/20 08:51:15;;;;;;;;;33.25;22.75;;;;;9.19;48.63;102331.56;5023630;28;46726;-75
2022/03/20 08:53:40;;;;;;;;;28.00;24.50;;;;;9.24;48.54;102323.84;5024556;28;53649;-76
2022/03/20 08:56:06;;;;;;;;;26.25;22.00;;;;;9.42;48.25;102337.75;5028234;28;46660;-75
2022/03/20 08:58:31;;;;;;;;;24.25;22.50;;;;;9.51;48.44;102339.84;5026725;28;45999;-75
2022/03/20 09:01:00;;;;;;;;;28.25;23.75;;;;;9.64;47.92;102346.50;5023880;28;45463;-76
2022/03/20 09:03:25;;;;;;;;;33.75;25.25;;;;;9.71;47.67;102346.81;5031627;28;45469;-77
2022/03/20 09:05:51;;;;;;;;;28.75;21.00;;;;;9.69;47.97;102326.47;5026336;28;48309;-76
2022/03/20 09:08:16;;;;;;;;;34.25;24.00;;;;;9.88;47.69;102351.84;5026362;28;45553;-76
2022/03/20 09:10:42;;;;;;;;;32.25;24.00;;;;;9.94;47.27;102345.03;4999985;28;46003;-76
2022/03/20 09:13:07;;;;;;;;;30.00;25.00;;;;;9.99;47.28;102345.22;5028112;28;45677;-74
2022/03/20 09:15:32;;;;;;;;;29.25;23.50;;;;;10.04;47.67;102348.94;5030089;28;53605;-76
2022/03/20 09:20:42;;;;;;;;;28.00;24.00;;;;;10.20;47.14;102353.94;5015117;28;45480;-75
2022/03/20 09:23:09;;;;;;;;;29.75;26.25;;;;;10.19;47.07;102338.94;5013508;28;45519;-76
2022/03/20 09:25:34;;;;;;;;;33.50;29.00;;;;;10.37;46.97;102356.31;5030264;28;46429;-76
2022/03/20 09:28:00;;;;;;;;;28.25;26.00;;;;;10.45;47.03;102352.25;5014092;28;46242;-76
2022/03/20 09:30:26;;;;;;;;;26.75;25.25;;;;;10.49;46.72;102347.13;5034380;28;45641;-76
2022/03/20 09:32:51;;;;;;;;;27.00;25.75;;;;;10.56;47.03;102347.34;5033599;28;45998;-76
2022/03/20 09:35:17;;;;;;;;;30.25;23.25;;;;;10.63;46.67;102344.06;5033317;28;47295;-75
2022/03/20 09:37:42;;;;;;;;;35.00;27.25;;;;;10.73;46.81;102360.28;5014980;28;58185;-75
2022/03/20 09:40:09;;;;;;;;;34.75;24.50;;;;;10.77;46.31;102345.44;5032883;28;45594;-76
2022/03/20 09:42:35;;;;;;;;;25.00;22.25;;;;;10.83;46.43;102350.94;5000532;28;45421;-76
2022/03/20 09:45:01;;;;;;;;;28.25;25.25;;;;;10.88;46.12;102345.81;5032922;28;45527;-76
2022/03/20 09:47:26;;;;;;;;;35.25;26.25;;;;;10.83;46.39;102335.06;5032912;28;45531;-76
2022/03/20 09:49:52;;;;;;;;;32.75;28.25;;;;;11.01;45.98;102340.97;5030409;28;46203;-75
2022/03/20 09:52:18;;;;;;;;;29.50;26.50;;;;;11.05;45.41;102341.97;5033481;28;45453;-77
2022/03/20 09:54:44;;;;;;;;;35.00;25.25;;;;;11.13;45.69;102336.94;5014102;28;45602;-76
2022/03/20 09:57:09;;;;;;;;;29.50;28.75;;;;;11.19;45.73;102345.09;5018927;28;45597;-76
2022/03/20 09:59:36;;;;;;;;;28.50;24.75;;;;;11.22;45.15;102332.84;5030797;28;45494;-76
2022/03/20 10:02:06;;;;;;;;;28.75;23.75;;;;;11.27;45.37;102340.94;5031576;28;45912;-75
2022/03/20 10:04:34;;;;;;;;;26.50;23.75;;;;;11.34;45.46;102342.03;5014581;28;47942;-76
2022/03/20 10:06:59;;;;;;;;;27.75;25.50;;;;;11.29;44.87;102326.00;5029993;28;45496;-75
2022/03/20 10:09:25;;;;;;;;;30.50;29.25;;;;;11.39;45.14;102337.78;5015932;28;45467;-76
2022/03/20 10:11:53;;;;;;;;;28.50;25.00;;;;;11.41;45.15;102331.69;5034911;28;45450;-76
2022/03/20 10:14:22;;;;;;;;;29.25;23.75;;;;;11.59;44.91;102346.34;5016317;28;47476;-77
2022/03/20 10:16:57;;;;;;;;;30.25;26.00;;;;;11.61;44.12;102348.22;5029613;28;45486;-76
2022/03/20 10:19:23;;;;;;;;;34.25;28.75;;;;;11.69;44.27;102353.72;5017488;28;45477;-75
2022/03/20 10:21:53;;;;;;;;;30.50;29.25;;;;;11.73;44.18;102350.31;5035092;28;45428;-75
2022/03/20 10:24:20;;;;;;;;;30.50;27.00;;;;;11.76;43.99;102339.81;5031830;28;45717;-77
2022/03/20 10:26:45;;;;;;;;;28.50;26.25;;;;;11.76;44.06;102335.41;5033097;28;45417;-75
2022/03/20 10:29:17;;;;;;;;;26.50;25.75;;;;;11.86;43.56;102336.63;5031836;28;45821;-76
2022/03/20 10:31:50;;;;;;;;;28.75;25.75;;;;;11.93;43.96;102340.34;5032166;28;45376;-76
2022/03/20 10:34:15;;;;;;;;;31.50;26.00;;;;;11.98;43.43;102346.69;5016488;28;47594;-76
2022/03/20 10:36:42;;;;;;;;;31.25;23.25;;;;;12.04;42.56;102338.94;5005316;28;45576;-75
2022/03/20 10:39:19;;;;;;;;;31.00;26.50;;;;;12.09;42.95;102347.00;5033056;28;45548;-75
2022/03/20 10:41:45;;;;;;;;;29.50;24.00;;;;;12.02;43.14;102320.34;5015626;28;45487;-76
2022/03/20 10:44:15;;;;;;;;;24.00;20.25;;;;;12.20;42.03;102343.81;5031682;28;46967;-76
2022/03/20 10:46:41;;;;;;;;;29.50;21.50;;;;;12.23;41.80;102335.06;4999796;28;45463;-77
2022/03/20 10:49:07;;;;;;;;;26.75;18.00;;;;;12.28;40.09;102336.09;5034443;28;45375;-75
2022/03/20 10:51:39;;;;;;;;;26.75;22.75;;;;;12.38;41.85;102334.59;5034442;28;45439;-76
2022/03/20 10:54:12;;;;;;;;;27.00;23.00;;;;;12.45;41.84;102344.50;5030833;28;46559;-75
2022/03/20 10:56:54;;;;;;;;;24.25;22.00;;;;;12.36;40.45;102301.84;5029620;28;45497;-75
2022/03/20 10:59:20;;;;;;;;;26.25;23.00;;;;;12.59;40.22;102327.22;5014631;28;45372;-76
2022/03/20 11:01:45;;;;;;;;;27.25;20.25;;;;;12.61;41.09;102320.19;4999455;28;45619;-75
2022/03/20 11:04:11;;;;;;;;;23.50;21.00;;;;;12.68;40.37;102327.47;5030593;28;46706;-76
2022/03/20 11:06:38;;;;;;;;;22.75;16.50;;;;;12.76;40.14;102327.66;5029009;28;45568;-76
2022/03/20 11:09:04;;;;;;;;;19.50;18.25;;;;;12.76;39.43;102315.31;5032591;28;45866;-76
2022/03/20 11:11:33;;;;;;;;;21.25;18.50;;;;;12.87;39.54;102327.94;5028221;28;45468;-76
2022/03/20 11:13:59;;;;;;;;;21.75;19.00;;;;;12.93;39.29;102326.34;5028110;28;46379;-75
2022/03/20 11:16:25;;;;;;;;;17.33;15.00;;;;;12.93;38.97;102309.53;5024620;28;45412;-75
2022/03/20 11:18:52;;;;;;;;;17.00;14.25;;;;;12.97;38.88;102304.34;5016783;28;45432;-77
2022/03/20 11:21:22;;;;;;;;;15.50;13.00;;;;;13.05;38.18;102312.50;5016355;28;45575;-76
2022/03/20 11:23:48;;;;;;;;;19.50;16.00;;;;;13.11;38.43;102299.41;5013108;28;46772;-76
2022/03/20 11:26:14;;;;;;;;;27.25;17.75;;;;;13.22;38.07;102315.59;5003708;28;45388;-75
2022/03/20 11:28:43;;;;;;;;;19.75;18.00;;;;;13.18;38.14;102303.97;5014805;28;53329;-75
2022/03/20 11:31:09;;;;;;;;;29.50;20.25;;;;;13.29;38.37;102310.47;5031186;28;45660;-76
2022/03/20 11:33:34;;;;;;;;;22.75;19.50;;;;;13.38;38.12;102316.84;5030687;28;46212;-75
2022/03/20 11:36:01;;;;;;;;;21.25;20.25;;;;;13.35;37.79;102299.09;5033763;28;45497;-76
2022/03/20 11:38:27;;;;;;;;;24.25;19.50;;;;;13.39;38.29;102293.00;5015756;28;45555;-75
2022/03/20 11:41:06;;;;;;;;;23.00;18.50;;;;;13.57;38.20;102306.69;5034444;28;45480;-76
2022/03/20 11:43:31;;;;;;;;;22.67;17.67;;;;;13.54;37.83;102298.66;5033219;28;45883;-75
2022/03/20 11:46:28;;;;;;;;;23.75;20.25;;;;;13.69;36.79;102314.03;5026371;28;45557;-75
2022/03/20 11:49:32;;;;;;;;;22.25;21.50;;;;;13.77;37.56;102311.53;5033124;28;45556;-75
2022/03/20 11:52:07;;;;;;;;;21.75;19.75;;;;;13.83;36.89;102309.00;4971230;28;45580;-75
2022/03/20 11:54:41;;;;;;;;;18.67;17.67;;;;;13.87;36.75;102310.88;4970995;28;47526;-76
2022/03/20 11:57:25;;;;;;;;;17.33;17.33;;;;;13.93;36.09;102308.34;5007494;28;45473;-76
2022/03/20 11:59:54;;;;;;;;;28.50;22.00;;;;;13.95;36.30;102297.75;5030127;28;45482;-75